createdAt,value
2022-07-30T00:18:19.017Z,0
2022-07-30T00:27:56.049Z,0
2022-07-30T00:37:33.392Z,0
2022-07-30T00:47:10.333Z,0
2022-07-30T00:56:47.563Z,0
2022-07-30T01:06:24.923Z,0
2022-07-30T01:16:01.648Z,0
2022-07-30T01:25:38.935Z,0
2022-07-30T01:35:15.870Z,0
2022-07-30T01:44:53.272Z,0
2022-07-30T01:54:30.708Z,0
2022-07-30T02:04:07.990Z,0
2022-07-30T02:23:22.868Z,0
2022-07-30T02:42:37.725Z,0
2022-07-30T03:01:52.340Z,0
2022-07-30T03:11:29.111Z,0.83
2022-07-30T03:21:06.194Z,3.33
2022-07-30T03:30:43.196Z,6.67
2022-07-30T03:40:20.490Z,9.17
2022-07-30T03:49:57.689Z,12.5
2022-07-30T03:59:34.882Z,16.67
2022-07-30T04:09:12.364Z,18.33
2022-07-30T04:28:27.061Z,89.17
2022-07-30T04:38:04.199Z,115.83
2022-07-30T04:47:41.355Z,160
2022-07-30T04:57:18.536Z,201.67
2022-07-30T05:06:55.883Z,382.5
2022-07-30T05:16:34.278Z,508.33
2022-07-30T05:26:11.004Z,435
2022-07-30T05:35:48.180Z,358.33
2022-07-30T05:45:25.159Z,351.67
2022-07-30T05:55:02.096Z,271.67
2022-07-30T06:04:39.791Z,260.83
2022-07-30T06:14:17.500Z,549.17
2022-07-30T06:23:55.113Z,595
2022-07-30T06:33:32.963Z,1572.5
2022-07-30T06:43:10.976Z,1548.33
2022-07-30T06:52:47.975Z,996.67
2022-07-30T07:02:26.204Z,1818.33
2022-07-30T07:12:03.946Z,1385.83
2022-07-30T07:40:56.277Z,1333.33
2022-07-30T07:50:34.005Z,2025.83
2022-07-30T08:00:13.650Z,3191.67
2022-07-30T08:09:51.146Z,2579.17
2022-07-30T08:57:56.728Z,1256.67
2022-07-30T09:07:33.626Z,1140.83
2022-07-30T09:17:10.649Z,1137.5
2022-07-30T09:26:47.423Z,1046.67
2022-07-30T09:46:01.445Z,1160
2022-07-30T09:55:41.148Z,1635.83
2022-07-30T10:05:16.995Z,1894.17
2022-07-30T10:14:55.275Z,2456.67
2022-07-30T10:24:34.025Z,2453.33
2022-07-30T10:34:11.935Z,1975
2022-07-30T10:43:48.560Z,1542.5
2022-07-30T10:53:28.520Z,1420.83
2022-07-30T11:03:02.272Z,1292.5
2022-07-30T11:12:39.576Z,1456.67
2022-07-30T11:22:16.053Z,1348.33
2022-07-30T11:32:07.478Z,2270
2022-07-30T11:41:33.918Z,3208.33
2022-07-30T11:51:11.810Z,3078.33
2022-07-30T12:00:50.877Z,4070
2022-07-30T12:10:32.484Z,13217.5
2022-07-30T12:20:16.238Z,4517.5
2022-07-30T12:29:48.776Z,2470.83
2022-07-30T12:39:22.122Z,1760
2022-07-30T12:58:35.369Z,1579.17
2022-07-30T13:08:12.496Z,1605.83
2022-07-30T13:17:49.146Z,1731.67
2022-07-30T13:27:26.701Z,1899.17
2022-07-30T13:37:04.683Z,1874.17
2022-07-30T13:46:41.965Z,1999.17
2022-07-30T13:56:19.517Z,2181.67
2022-07-30T14:05:57.050Z,2209.17
2022-07-30T14:15:34.285Z,1926.67
2022-07-30T14:34:49.335Z,1809.17
2022-07-30T14:54:02.319Z,1495
2022-07-30T15:03:39.346Z,1504.17
2022-07-30T15:13:17.344Z,1719.17
2022-07-30T15:22:55.148Z,2330
2022-07-30T15:32:33.732Z,2810.83
2022-07-30T15:42:11.088Z,2420.83
2022-07-30T16:11:01.746Z,1585.83
2022-07-30T16:20:38.973Z,1460
2022-07-30T16:30:18.174Z,3245.83
2022-07-30T16:39:57.382Z,3455
2022-07-30T16:49:33.863Z,2318.33
2022-07-30T16:59:13.612Z,1440.83
2022-07-30T17:08:47.433Z,1083.33
2022-07-30T17:18:24.486Z,856.67
2022-07-30T17:28:01.455Z,960.83
2022-07-30T17:37:38.323Z,946.67
2022-07-30T17:56:52.539Z,722.5
2022-07-30T18:06:29.547Z,515.83
2022-07-30T18:25:51.290Z,232.5
2022-07-30T18:44:56.754Z,93.33
2022-07-30T19:04:10.478Z,40.83
2022-07-30T19:13:47.155Z,15
2022-07-30T19:23:23.172Z,5
2022-07-30T19:42:36.099Z,0.83
2022-07-30T19:52:23.815Z,0
2022-07-30T20:01:51.837Z,0
2022-07-30T20:11:34.915Z,0
2022-07-30T20:30:39.479Z,0
2022-07-30T20:49:52.852Z,0
2022-07-30T20:59:29.666Z,0
2022-07-30T21:09:06.606Z,0
2022-07-30T21:28:27.380Z,0
2022-07-30T21:37:56.401Z,0
2022-07-30T21:47:33.272Z,0
2022-07-30T21:57:10.644Z,0
2022-07-30T22:16:25.231Z,0
2022-07-30T22:26:02.170Z,0
2022-07-30T22:35:39.417Z,0
2022-07-30T22:54:53.307Z,0
2022-07-30T23:23:44.557Z,0
2022-07-30T23:33:21.488Z,0
2022-07-30T23:52:35.083Z,0
